Time;durP1;ratioP1;P1;durP2;ratioP2;P2;SDS_P1;SDS_P2;PMS_P1;PMS_P2;Temp;Humidity;BMP_temperature;BMP_pressure;BME280_temperature;BME280_humidity;BME280_pressure;Samples;Min_cycle;Max_cycle;Signal;HPM_P1;HPM_P2
2023/01/31 00:02:55;;;;;;;;;;;18.10;33.40;;;;;;8363392;28;19924;-44
2023/01/31 00:06:55;;;;;;;;;;;18.10;33.40;;;;;;8363246;28;19920;-43
2023/01/31 00:10:57;;;;;;;;;;;18.00;33.40;;;;;;8363850;28;19916;-45
2023/01/31 00:14:58;;;;;;;;;;;18.00;33.40;;;;;;8362970;28;19975;-44
2023/01/31 00:18:59;;;;;;;;;;;18.00;33.50;;;;;;8363428;28;19966;-44
2023/01/31 00:22:59;;;;;;;;;;;18.00;33.50;;;;;;8363287;28;19917;-45
2023/01/31 00:27:00;;;;;;;;;;;17.90;33.40;;;;;;8362347;28;19920;-45
2023/01/31 00:31:00;;;;;;;;;;;17.90;33.50;;;;;;8363228;28;19924;-44
2023/01/31 00:35:01;;;;;;;;;;;17.90;33.50;;;;;;8362946;28;19924;-44
2023/01/31 00:39:02;;;;;;;;;;;17.90;33.50;;;;;;8362647;28;20356;-44
2023/01/31 00:43:03;;;;;;;;;;;17.80;33.50;;;;;;8363073;28;19917;-44
2023/01/31 00:47:03;;;;;;;;;;;17.80;33.50;;;;;;8363006;28;20023;-44
2023/01/31 00:51:04;;;;;;;;;;;17.80;33.40;;;;;;8362885;28;19920;-45
2023/01/31 00:55:05;;;;;;;;;;;17.80;33.40;;;;;;8362556;28;19931;-44
2023/01/31 00:59:07;;;;;;;;;;;17.80;33.50;;;;;;8362861;28;19924;-44
2023/01/31 01:03:07;;;;;;;;;;;17.80;33.50;;;;;;8362364;28;19940;-45
2023/01/31 01:07:08;;;;;;;;;;;17.80;33.50;;;;;;8362626;28;19993;-45
2023/01/31 01:11:10;;;;;;;;;;;17.80;33.40;;;;;;8362121;28;19917;-44
2023/01/31 01:15:11;;;;;;;;;;;17.80;33.40;;;;;;8362120;28;19935;-44
2023/01/31 01:19:14;;;;;;;;;;;17.70;33.40;;;;;;8362518;28;20002;-44
2023/01/31 01:23:15;;;;;;;;;;;17.70;33.40;;;;;;8362530;28;19917;-44
2023/01/31 01:27:15;;;;;;;;;;;17.70;33.40;;;;;;8361992;28;19916;-44
2023/01/31 01:31:17;;;;;;;;;;;17.80;33.40;;;;;;8362830;28;19979;-44
2023/01/31 01:35:17;;;;;;;;;;;17.70;33.40;;;;;;8362197;28;20325;-44
2023/01/31 01:39:18;;;;;;;;;;;17.70;33.40;;;;;;8363267;28;19917;-44
2023/01/31 01:43:18;;;;;;;;;;;17.70;33.30;;;;;;8368097;28;19917;-43
2023/01/31 01:47:21;;;;;;;;;;;17.70;33.30;;;;;;8368384;28;19939;-44
2023/01/31 01:51:22;;;;;;;;;;;17.70;33.30;;;;;;8367873;28;19916;-44
2023/01/31 01:55:27;;;;;;;;;;;17.70;33.30;;;;;;8367995;28;20294;-44
2023/01/31 01:59:30;;;;;;;;;;;17.70;33.30;;;;;;8367682;28;20327;-44
2023/01/31 02:03:30;;;;;;;;;;;17.70;33.30;;;;;;8367185;28;20023;-43
2023/01/31 02:07:31;;;;;;;;;;;17.70;33.30;;;;;;8355710;28;19921;-43
2023/01/31 02:11:31;;;;;;;;;;;17.70;33.30;;;;;;8367615;28;20395;-44
2023/01/31 02:15:32;;;;;;;;;;;17.60;33.40;;;;;;8366737;28;19925;-45
2023/01/31 02:19:32;;;;;;;;;;;17.60;33.40;;;;;;8366760;28;20046;-44
2023/01/31 02:23:51;;;;;;;;;;;17.60;33.40;;;;;;8367057;28;19917;-44
2023/01/31 02:28:01;;;;;;;;;;;17.60;33.50;;;;;;8366906;28;20400;-44
2023/01/31 02:32:29;;;;;;;;;;;17.60;33.40;;;;;;8366677;28;19912;-44
2023/01/31 02:36:48;;;;;;;;;;;17.60;33.40;;;;;;8366020;28;19925;-44
2023/01/31 02:40:58;;;;;;;;;;;17.60;33.40;;;;;;8366532;28;20313;-44
2023/01/31 02:45:04;;;;;;;;;;;17.50;33.30;;;;;;8365926;28;19923;-44
2023/01/31 02:49:33;;;;;;;;;;;17.50;33.40;;;;;;8366488;28;20378;-44
2023/01/31 02:53:36;;;;;;;;;;;17.50;33.40;;;;;;8366389;28;20305;-42
2023/01/31 02:57:37;;;;;;;;;;;17.50;33.60;;;;;;8366315;28;19925;-44
2023/01/31 03:01:40;;;;;;;;;;;17.50;33.40;;;;;;8365942;28;19924;-44
2023/01/31 03:05:41;;;;;;;;;;;17.40;33.40;;;;;;8364811;28;19936;-44
2023/01/31 03:09:54;;;;;;;;;;;17.40;33.40;;;;;;8365565;28;19916;-43
2023/01/31 03:14:05;;;;;;;;;;;17.40;33.40;;;;;;8365375;28;19979;-44
2023/01/31 03:18:09;;;;;;;;;;;17.40;33.40;;;;;;8364721;28;19952;-43
2023/01/31 03:22:15;;;;;;;;;;;17.40;33.40;;;;;;8365619;28;19921;-43
2023/01/31 03:26:18;;;;;;;;;;;17.40;33.40;;;;;;8365207;28;19951;-43
2023/01/31 03:30:21;;;;;;;;;;;17.40;33.40;;;;;;8364276;28;19917;-43
2023/01/31 03:34:21;;;;;;;;;;;17.40;33.40;;;;;;8364525;28;20353;-44
2023/01/31 03:38:28;;;;;;;;;;;17.40;33.40;;;;;;8364476;28;19917;-42
2023/01/31 03:42:41;;;;;;;;;;;17.40;33.40;;;;;;8364024;28;19917;-43
2023/01/31 03:46:43;;;;;;;;;;;17.40;33.30;;;;;;8364504;28;20003;-43
2023/01/31 03:50:48;;;;;;;;;;;17.40;33.30;;;;;;8363506;28;19917;-43
2023/01/31 03:54:52;;;;;;;;;;;17.40;33.30;;;;;;8364285;28;19932;-44
2023/01/31 03:58:58;;;;;;;;;;;17.40;33.30;;;;;;8363892;28;19917;-44
2023/01/31 04:03:06;;;;;;;;;;;17.40;33.30;;;;;;8363502;28;19912;-43
2023/01/31 04:07:06;;;;;;;;;;;17.40;33.30;;;;;;8363796;28;19924;-43
2023/01/31 04:11:08;;;;;;;;;;;17.30;33.20;;;;;;8363666;28;20020;-43
2023/01/31 04:15:09;;;;;;;;;;;17.40;33.30;;;;;;8363035;28;20011;-43
2023/01/31 04:19:10;;;;;;;;;;;17.40;33.20;;;;;;8363205;28;20377;-42
2023/01/31 04:23:10;;;;;;;;;;;17.40;33.20;;;;;;8363700;28;19916;-43
2023/01/31 04:27:11;;;;;;;;;;;17.40;33.20;;;;;;8362745;28;19921;-43
2023/01/31 04:31:11;;;;;;;;;;;17.40;33.20;;;;;;8363579;28;20004;-42
2023/01/31 04:35:11;;;;;;;;;;;17.40;33.10;;;;;;8363109;28;19929;-42
2023/01/31 04:39:13;;;;;;;;;;;17.40;33.10;;;;;;8362406;28;19940;-43
2023/01/31 04:43:13;;;;;;;;;;;17.40;33.10;;;;;;8363373;28;19913;-42
2023/01/31 04:47:14;;;;;;;;;;;17.40;33.10;;;;;;8363100;28;19917;-42
2023/01/31 04:51:14;;;;;;;;;;;17.40;33.10;;;;;;8362528;28;19916;-42
2023/01/31 04:55:15;;;;;;;;;;;17.40;33.10;;;;;;8362766;28;19925;-43
2023/01/31 04:59:15;;;;;;;;;;;17.40;33.10;;;;;;8362749;28;20002;-42
2023/01/31 05:03:16;;;;;;;;;;;17.40;33.00;;;;;;8341663;28;20019;-43
2023/01/31 05:07:16;;;;;;;;;;;17.40;33.10;;;;;;8359697;28;19916;-42
2023/01/31 05:11:17;;;;;;;;;;;17.40;33.10;;;;;;8362541;28;19928;-42
2023/01/31 05:15:20;;;;;;;;;;;17.40;33.20;;;;;;8364436;28;21310;-43
2023/01/31 05:19:20;;;;;;;;;;;17.50;33.10;;;;;;8368847;28;19916;-42
2023/01/31 05:23:21;;;;;;;;;;;17.60;33.10;;;;;;8369084;28;19924;-42
2023/01/31 05:27:21;;;;;;;;;;;17.60;33.00;;;;;;8367775;28;19917;-43
2023/01/31 05:31:21;;;;;;;;;;;17.70;33.00;;;;;;8368658;28;19958;-42
2023/01/31 05:35:22;;;;;;;;;;;17.80;32.90;;;;;;8368282;28;19968;-43
2023/01/31 05:39:22;;;;;;;;;;;17.80;32.90;;;;;;8367705;28;19927;-43
2023/01/31 05:43:23;;;;;;;;;;;17.80;32.80;;;;;;8368406;28;19917;-42
2023/01/31 05:47:23;;;;;;;;;;;17.90;32.80;;;;;;8368102;28;19971;-43
2023/01/31 05:51:24;;;;;;;;;;;17.90;32.70;;;;;;8367361;28;20015;-43
2023/01/31 05:55:26;;;;;;;;;;;18.00;32.80;;;;;;8367671;28;19955;-42
2023/01/31 05:59:29;;;;;;;;;;;18.00;32.70;;;;;;8367649;28;19959;-43
2023/01/31 06:03:29;;;;;;;;;;;18.00;32.60;;;;;;8367388;28;19913;-44
2023/01/31 06:07:30;;;;;;;;;;;18.10;32.60;;;;;;8367624;28;20366;-45
2023/01/31 06:11:30;;;;;;;;;;;18.10;32.60;;;;;;8367369;28;19924;-44
2023/01/31 06:15:31;;;;;;;;;;;18.10;32.60;;;;;;8366651;28;19955;-43
2023/01/31 06:19:31;;;;;;;;;;;18.20;32.60;;;;;;8366938;28;19925;-44
2023/01/31 06:23:33;;;;;;;;;;;18.20;32.60;;;;;;8367139;28;20289;-44
2023/01/31 06:27:33;;;;;;;;;;;18.20;32.50;;;;;;8364816;28;20424;-44
2023/01/31 06:31:34;;;;;;;;;;;18.20;32.60;;;;;;8366834;28;19924;-44
2023/01/31 06:35:35;;;;;;;;;;;18.30;32.60;;;;;;8365974;28;19928;-42
2023/01/31 06:39:35;;;;;;;;;;;18.30;32.50;;;;;;8366424;28;19913;-44
2023/01/31 06:43:36;;;;;;;;;;;18.30;32.50;;;;;;8366387;28;20389;-43
2023/01/31 06:47:36;;;;;;;;;;;18.30;32.50;;;;;;8365696;28;20312;-42
2023/01/31 06:51:36;;;;;;;;;;;18.40;32.50;;;;;;8365903;28;19916;-43
2023/01/31 06:55:37;;;;;;;;;;;18.40;32.40;;;;;;8365834;28;19935;-44
2023/01/31 06:59:38;;;;;;;;;;;18.40;32.40;;;;;;8365227;28;19917;-42
2023/01/31 07:03:39;;;;;;;;;;;18.40;32.40;;;;;;8365653;28;19913;-42
2023/01/31 07:07:39;;;;;;;;;;;18.50;32.40;;;;;;8365325;28;19921;-43
2023/01/31 07:11:40;;;;;;;;;;;18.50;32.40;;;;;;8364924;28;20393;-43
2023/01/31 07:15:41;;;;;;;;;;;18.50;32.40;;;;;;8365317;28;19932;-43
2023/01/31 07:19:41;;;;;;;;;;;18.50;32.40;;;;;;8364788;28;20003;-43
2023/01/31 07:23:42;;;;;;;;;;;18.50;32.30;;;;;;8364695;28;20353;-44
2023/01/31 07:27:42;;;;;;;;;;;18.50;32.30;;;;;;8364946;28;20374;-43
2023/01/31 07:31:42;;;;;;;;;;;18.60;32.40;;;;;;8364980;28;19920;-44
2023/01/31 07:35:43;;;;;;;;;;;18.60;32.30;;;;;;8364044;28;20031;-44
2023/01/31 07:39:43;;;;;;;;;;;18.60;32.30;;;;;;8364168;28;19920;-44
2023/01/31 07:43:44;;;;;;;;;;;18.60;32.30;;;;;;8364383;28;20377;-44
2023/01/31 07:47:44;;;;;;;;;;;18.60;32.30;;;;;;8363797;28;19928;-43
2023/01/31 07:51:45;;;;;;;;;;;18.70;32.30;;;;;;8364153;28;19921;-43
2023/01/31 07:55:46;;;;;;;;;;;18.60;32.30;;;;;;8364130;28;19968;-43
2023/01/31 07:59:46;;;;;;;;;;;18.70;32.30;;;;;;8363142;28;20004;-43
2023/01/31 08:03:47;;;;;;;;;;;18.70;32.30;;;;;;8364086;28;19916;-43
2023/01/31 08:08:09;;;;;;;;;;;18.70;32.20;;;;;;8357111;28;19997;-43
2023/01/31 08:12:07;;;;;;;;;;;18.70;32.20;;;;;;8348623;28;20000;-44
2023/01/31 08:16:08;;;;;;;;;;;18.80;32.20;;;;;;8363343;28;19925;-44
2023/01/31 08:20:09;;;;;;;;;;;18.70;32.20;;;;;;8363385;28;20241;-45
2023/01/31 08:24:09;;;;;;;;;;;18.70;32.20;;;;;;8363098;28;20390;-44
2023/01/31 08:28:10;;;;;;;;;;;18.70;32.20;;;;;;8363209;28;20317;-44
2023/01/31 08:32:10;;;;;;;;;;;18.70;32.20;;;;;;8362983;28;19916;-44
2023/01/31 08:36:13;;;;;;;;;;;18.60;32.20;;;;;;8362699;28;20488;-44
2023/01/31 08:40:13;;;;;;;;;;;18.60;32.20;;;;;;8363113;28;20297;-44
2023/01/31 08:44:14;;;;;;;;;;;18.60;32.20;;;;;;8363197;28;19944;-44
2023/01/31 08:48:15;;;;;;;;;;;18.50;32.20;;;;;;8362365;28;19917;-43
2023/01/31 08:52:15;;;;;;;;;;;18.50;32.30;;;;;;8369159;28;19917;-43
2023/01/31 08:56:16;;;;;;;;;;;18.40;32.30;;;;;;8369916;28;19947;-43
2023/01/31 09:00:16;;;;;;;;;;;18.40;32.30;;;;;;8368662;28;19913;-43
2023/01/31 09:04:17;;;;;;;;;;;18.40;32.40;;;;;;8369825;28;20369;-44
2023/01/31 09:08:17;;;;;;;;;;;18.30;32.40;;;;;;8369134;28;19967;-45
2023/01/31 09:12:18;;;;;;;;;;;18.30;32.40;;;;;;8368702;28;19924;-43
2023/01/31 09:16:19;;;;;;;;;;;18.30;32.50;;;;;;8368778;28;19925;-45
2023/01/31 09:20:19;;;;;;;;;;;18.30;32.50;;;;;;8368898;28;20340;-45
2023/01/31 09:24:19;;;;;;;;;;;18.20;32.50;;;;;;8367865;28;20007;-44
2023/01/31 09:28:20;;;;;;;;;;;18.20;32.50;;;;;;8368670;28;20420;-44
2023/01/31 09:32:21;;;;;;;;;;;18.20;32.60;;;;;;8368503;28;20370;-46
2023/01/31 09:36:22;;;;;;;;;;;18.20;32.60;;;;;;8367934;28;19935;-45
2023/01/31 09:40:25;;;;;;;;;;;18.10;32.60;;;;;;8368383;28;19913;-43
2023/01/31 09:44:25;;;;;;;;;;;18.10;32.60;;;;;;8367871;28;19917;-44
2023/01/31 09:48:33;;;;;;;;;;;18.10;32.80;;;;;;8367342;28;19924;-45
2023/01/31 09:52:34;;;;;;;;;;;18.10;32.80;;;;;;8367969;28;19971;-44
2023/01/31 09:56:39;;;;;;;;;;;18.10;32.90;;;;;;8367887;28;19925;-44
2023/01/31 10:00:46;;;;;;;;;;;18.10;32.90;;;;;;8367213;28;19913;-45
2023/01/31 10:04:49;;;;;;;;;;;18.10;32.90;;;;;;8367599;28;19919;-45
2023/01/31 10:09:03;;;;;;;;;;;18.00;32.90;;;;;;8367041;28;20377;-46
2023/01/31 10:13:10;;;;;;;;;;;18.00;32.90;;;;;;8367079;28;19920;-46
2023/01/31 10:17:15;;;;;;;;;;;18.00;32.90;;;;;;8366976;28;19928;-45
2023/01/31 10:21:17;;;;;;;;;;;18.00;32.90;;;;;;8366513;28;19948;-46
2023/01/31 10:25:40;;;;;;;;;;;18.00;33.00;;;;;;8367079;28;20354;-44
2023/01/31 10:29:49;;;;;;;;;;;18.00;33.00;;;;;;8324703;28;19917;-45
2023/01/31 10:33:49;;;;;;;;;;;17.90;33.00;;;;;;8358123;28;19978;-44
2023/01/31 10:37:56;;;;;;;;;;;17.90;33.00;;;;;;8366482;28;19970;-45
2023/01/31 10:42:02;;;;;;;;;;;18.00;33.00;;;;;;8365824;28;19924;-46
2023/01/31 10:46:07;;;;;;;;;;;17.90;33.00;;;;;;8366133;28;19958;-46
2023/01/31 10:50:15;;;;;;;;;;;17.90;33.00;;;;;;8366069;28;19913;-46
2023/01/31 10:54:32;;;;;;;;;;;17.90;33.10;;;;;;8365176;28;20381;-45
2023/01/31 10:58:34;;;;;;;;;;;17.90;33.00;;;;;;8366064;28;19952;-46
2023/01/31 11:02:34;;;;;;;;;;;17.90;33.10;;;;;;8366067;28;19940;-47
2023/01/31 11:06:34;;;;;;;;;;;17.90;33.10;;;;;;8360114;28;19924;-47
2023/01/31 11:10:48;;;;;;;;;;;17.90;33.10;;;;;;8332530;28;19913;-47
2023/01/31 11:15:06;;;;;;;;;;;17.90;33.10;;;;;;8361542;28;19924;-45
2023/01/31 11:19:19;;;;;;;;;;;17.90;33.10;;;;;;8364770;28;20003;-46
2023/01/31 11:23:22;;;;;;;;;;;17.90;33.20;;;;;;8364766;28;19934;-44
2023/01/31 11:27:24;;;;;;;;;;;17.90;33.20;;;;;;8362904;28;19917;-44
2023/01/31 11:31:29;;;;;;;;;;;17.80;33.20;;;;;;8364341;28;19925;-46
2023/01/31 11:35:31;;;;;;;;;;;17.90;33.20;;;;;;8364743;28;20294;-45
2023/01/31 11:39:38;;;;;;;;;;;17.80;33.30;;;;;;8363827;28;20369;-45
2023/01/31 11:43:39;;;;;;;;;;;17.80;33.20;;;;;;8364576;28;20388;-45
2023/01/31 11:47:44;;;;;;;;;;;17.80;33.20;;;;;;8363868;28;19913;-44
2023/01/31 11:51:45;;;;;;;;;;;17.80;33.20;;;;;;8364129;28;20304;-46
2023/01/31 11:55:47;;;;;;;;;;;17.80;33.30;;;;;;8364237;28;19925;-45
2023/01/31 11:59:48;;;;;;;;;;;17.80;33.30;;;;;;8363289;28;19948;-45
2023/01/31 12:03:59;;;;;;;;;;;17.80;33.30;;;;;;8363612;28;19917;-45
2023/01/31 12:07:59;;;;;;;;;;;17.70;33.20;;;;;;8363372;28;19944;-45
2023/01/31 12:12:05;;;;;;;;;;;17.80;33.30;;;;;;8363082;28;19917;-45
2023/01/31 12:16:05;;;;;;;;;;;17.80;33.30;;;;;;8363813;28;19921;-45
2023/01/31 12:20:06;;;;;;;;;;;17.80;33.30;;;;;;8363267;28;19923;-45
2023/01/31 12:24:28;;;;;;;;;;;17.80;33.30;;;;;;8362355;28;19917;-45
2023/01/31 12:28:47;;;;;;;;;;;17.80;33.30;;;;;;8363091;28;19963;-45
2023/01/31 12:33:07;;;;;;;;;;;17.80;33.30;;;;;;8362386;28;19917;-45
2023/01/31 12:37:07;;;;;;;;;;;17.80;33.30;;;;;;8363012;28;19979;-44
2023/01/31 12:41:26;;;;;;;;;;;17.90;33.30;;;;;;8363103;28;19917;-45
2023/01/31 12:45:53;;;;;;;;;;;17.90;33.30;;;;;;8362270;28;19963;-45
2023/01/31 12:49:57;;;;;;;;;;;17.90;33.20;;;;;;8358646;28;19931;-45
2023/01/31 12:54:02;;;;;;;;;;;17.90;33.20;;;;;;8361882;28;19917;-45
2023/01/31 12:58:12;;;;;;;;;;;17.90;33.10;;;;;;8362770;28;19925;-45
2023/01/31 13:02:17;;;;;;;;;;;18.00;33.10;;;;;;8362695;28;19921;-44
2023/01/31 13:06:21;;;;;;;;;;;18.00;33.00;;;;;;8362435;28;19913;-44
2023/01/31 13:10:22;;;;;;;;;;;18.00;33.00;;;;;;8362434;28;19921;-45
2023/01/31 13:14:25;;;;;;;;;;;18.00;33.10;;;;;;8362410;28;22246;-44
2023/01/31 13:18:26;;;;;;;;;;;18.00;33.10;;;;;;8362004;28;19916;-46
2023/01/31 13:22:28;;;;;;;;;;;18.00;33.00;;;;;;8362332;28;19917;-46
2023/01/31 13:26:34;;;;;;;;;;;18.00;33.00;;;;;;8362488;28;19913;-45
2023/01/31 13:30:41;;;;;;;;;;;18.00;33.00;;;;;;8361833;28;19917;-45
2023/01/31 13:34:43;;;;;;;;;;;18.00;33.00;;;;;;8362533;28;19994;-45
2023/01/31 13:38:44;;;;;;;;;;;17.90;33.00;;;;;;8367996;28;20374;-45
2023/01/31 13:42:45;;;;;;;;;;;17.90;33.00;;;;;;8368031;28;19920;-45
2023/01/31 13:46:45;;;;;;;;;;;17.90;33.00;;;;;;8368027;28;19917;-46
2023/01/31 13:50:54;;;;;;;;;;;17.90;33.10;;;;;;8367206;28;19959;-46
2023/01/31 13:54:57;;;;;;;;;;;17.90;33.10;;;;;;8367845;28;20092;-46
2023/01/31 13:58:59;;;;;;;;;;;17.90;33.10;;;;;;8367783;28;19917;-46
2023/01/31 14:03:04;;;;;;;;;;;17.80;33.20;;;;;;8367270;28;19965;-46
2023/01/31 14:07:05;;;;;;;;;;;17.90;33.20;;;;;;8367624;28;19917;-46
2023/01/31 14:11:11;;;;;;;;;;;17.80;33.20;;;;;;8366519;28;19917;-45
2023/01/31 14:15:30;;;;;;;;;;;17.80;33.20;;;;;;8365197;28;20394;-45
2023/01/31 14:19:44;;;;;;;;;;;17.80;33.20;;;;;;8367072;28;19924;-46
2023/01/31 14:23:46;;;;;;;;;;;17.80;33.30;;;;;;8366243;28;19913;-44
2023/01/31 14:27:55;;;;;;;;;;;17.80;33.30;;;;;;8366901;28;19920;-44
2023/01/31 14:31:55;;;;;;;;;;;17.80;33.30;;;;;;8366679;28;19916;-45
2023/01/31 14:36:06;;;;;;;;;;;17.80;33.30;;;;;;8366153;28;20467;-44
2023/01/31 14:40:26;;;;;;;;;;;17.70;33.30;;;;;;8366089;28;19917;-44
2023/01/31 14:44:27;;;;;;;;;;;17.70;33.30;;;;;;8325212;28;19959;-45
2023/01/31 14:48:45;;;;;;;;;;;17.70;33.40;;;;;;8364247;28;20289;-45
2023/01/31 14:52:54;;;;;;;;;;;17.70;33.40;;;;;;8365944;28;19917;-45
2023/01/31 14:57:12;;;;;;;;;;;17.70;33.40;;;;;;8365328;28;19925;-45
2023/01/31 15:01:17;;;;;;;;;;;17.70;33.50;;;;;;8365663;28;19943;-45
2023/01/31 15:05:21;;;;;;;;;;;17.70;33.40;;;;;;8365551;28;19924;-43
2023/01/31 15:09:23;;;;;;;;;;;17.70;33.50;;;;;;8364917;28;19963;-47
2023/01/31 15:13:35;;;;;;;;;;;17.70;33.40;;;;;;8365277;28;19924;-45
2023/01/31 15:17:36;;;;;;;;;;;17.70;33.40;;;;;;8365380;28;20435;-45
2023/01/31 15:21:47;;;;;;;;;;;17.70;33.40;;;;;;8364912;28;19952;-44
2023/01/31 15:25:48;;;;;;;;;;;17.70;33.40;;;;;;8364944;28;19917;-46
2023/01/31 15:29:49;;;;;;;;;;;17.70;33.40;;;;;;8364419;28;19920;-45
2023/01/31 15:33:51;;;;;;;;;;;17.70;33.40;;;;;;8364565;28;19921;-45
2023/01/31 15:38:01;;;;;;;;;;;17.80;33.40;;;;;;8365054;28;19947;-45
2023/01/31 15:42:20;;;;;;;;;;;17.80;33.40;;;;;;8364245;28;19917;-44
2023/01/31 15:46:31;;;;;;;;;;;17.80;33.30;;;;;;8364468;28;19963;-45
2023/01/31 15:50:32;;;;;;;;;;;17.80;33.30;;;;;;8364076;28;19916;-45
2023/01/31 15:54:33;;;;;;;;;;;17.80;33.30;;;;;;8363684;28;19939;-46
2023/01/31 15:58:35;;;;;;;;;;;17.80;33.30;;;;;;8363351;28;19966;-45
2023/01/31 16:02:36;;;;;;;;;;;17.80;33.30;;;;;;8363838;28;19912;-45
2023/01/31 16:06:38;;;;;;;;;;;17.80;33.30;;;;;;8363243;28;19932;-47
2023/01/31 16:10:39;;;;;;;;;;;17.80;33.40;;;;;;8363496;28;20008;-45
2023/01/31 16:14:43;;;;;;;;;;;17.80;33.40;;;;;;8362884;28;20010;-46
2023/01/31 16:18:47;;;;;;;;;;;17.90;33.40;;;;;;8363825;28;19970;-46
2023/01/31 16:22:54;;;;;;;;;;;17.90;33.30;;;;;;8363797;28;19913;-46
2023/01/31 16:27:00;;;;;;;;;;;18.00;33.30;;;;;;8362994;28;19917;-45
2023/01/31 16:31:05;;;;;;;;;;;18.10;33.30;;;;;;8363537;28;20437;-46
2023/01/31 16:35:06;;;;;;;;;;;18.10;33.20;;;;;;8363096;28;19932;-45
2023/01/31 16:39:19;;;;;;;;;;;18.20;33.20;;;;;;8362273;28;20398;-45
2023/01/31 16:43:20;;;;;;;;;;;18.20;33.20;;;;;;8362831;28;19935;-46
2023/01/31 16:47:32;;;;;;;;;;;18.30;33.20;;;;;;8362662;28;19917;-44
2023/01/31 16:51:38;;;;;;;;;;;18.30;33.10;;;;;;8361947;28;20362;-44
2023/01/31 16:55:39;;;;;;;;;;;18.40;33.10;;;;;;8367562;28;19924;-46
2023/01/31 16:59:43;;;;;;;;;;;18.40;33.10;;;;;;8362120;28;19917;-44
2023/01/31 17:03:45;;;;;;;;;;;18.50;33.20;;;;;;8362915;28;19948;-46
2023/01/31 17:07:47;;;;;;;;;;;18.50;33.10;;;;;;8361640;28;19920;-43
2023/01/31 17:11:48;;;;;;;;;;;18.50;33.10;;;;;;8365878;28;20370;-45
2023/01/31 17:15:49;;;;;;;;;;;18.50;33.10;;;;;;8369133;28;19925;-45
2023/01/31 17:19:49;;;;;;;;;;;18.50;33.00;;;;;;8368975;28;20350;-45
2023/01/31 17:23:50;;;;;;;;;;;18.60;33.10;;;;;;8368308;28;19920;-47
2023/01/31 17:27:50;;;;;;;;;;;18.60;33.10;;;;;;8368825;28;19913;-45
2023/01/31 17:31:51;;;;;;;;;;;18.60;33.10;;;;;;8368618;28;20290;-45
2023/01/31 17:35:51;;;;;;;;;;;18.70;33.10;;;;;;8367818;28;20405;-46
2023/01/31 17:39:52;;;;;;;;;;;18.70;33.10;;;;;;8368493;28;20041;-48
2023/01/31 17:43:52;;;;;;;;;;;18.70;33.10;;;;;;8368552;28;19970;-46
2023/01/31 17:47:53;;;;;;;;;;;18.80;33.10;;;;;;8367884;28;19999;-45
2023/01/31 17:51:53;;;;;;;;;;;18.80;33.10;;;;;;8367723;28;19978;-46
2023/01/31 17:55:53;;;;;;;;;;;18.80;33.60;;;;;;8367979;28;19925;-45
2023/01/31 17:59:54;;;;;;;;;;;18.80;33.00;;;;;;8367549;28;19917;-45
2023/01/31 18:03:55;;;;;;;;;;;18.80;33.10;;;;;;8368019;28;19913;-45
2023/01/31 18:07:55;;;;;;;;;;;18.80;33.00;;;;;;8369128;28;20286;-46
2023/01/31 18:11:56;;;;;;;;;;;18.90;33.00;;;;;;8368515;28;20000;-45
2023/01/31 18:16:04;;;;;;;;;;;18.90;33.10;;;;;;8369107;28;20305;-52
2023/01/31 18:20:05;;;;;;;;;;;18.90;33.10;;;;;;8368603;28;19917;-46
2023/01/31 18:24:06;;;;;;;;;;;18.90;33.00;;;;;;8367482;28;19920;-46
2023/01/31 18:28:06;;;;;;;;;;;19.00;33.00;;;;;;8368482;28;19999;-46
2023/01/31 18:32:08;;;;;;;;;;;19.00;33.00;;;;;;8368076;28;19917;-46
2023/01/31 18:36:12;;;;;;;;;;;19.00;33.00;;;;;;8366045;28;19947;-46
2023/01/31 18:40:13;;;;;;;;;;;19.00;33.00;;;;;;8366444;28;20301;-45
2023/01/31 18:44:13;;;;;;;;;;;19.10;33.00;;;;;;8366119;28;20189;-46
2023/01/31 18:48:14;;;;;;;;;;;19.10;33.00;;;;;;8365752;28;19912;-45
2023/01/31 18:52:15;;;;;;;;;;;19.10;33.00;;;;;;8365925;28;19917;-46
2023/01/31 18:56:20;;;;;;;;;;;19.10;33.00;;;;;;8365936;28;20038;-45
2023/01/31 19:00:20;;;;;;;;;;;19.10;33.00;;;;;;8365437;28;19940;-46
2023/01/31 19:04:21;;;;;;;;;;;19.10;33.00;;;;;;8365803;28;19913;-45
2023/01/31 19:08:21;;;;;;;;;;;19.10;33.00;;;;;;8366192;28;20320;-46
2023/01/31 19:12:22;;;;;;;;;;;19.10;33.00;;;;;;8364976;28;19921;-45
2023/01/31 19:16:24;;;;;;;;;;;19.20;33.00;;;;;;8365367;28;19929;-46
2023/01/31 19:20:24;;;;;;;;;;;19.20;32.90;;;;;;8365142;28;19917;-46
2023/01/31 19:24:25;;;;;;;;;;;19.20;32.90;;;;;;8364709;28;20437;-45
2023/01/31 19:28:26;;;;;;;;;;;19.20;33.00;;;;;;8365156;28;19921;-45
2023/01/31 19:32:27;;;;;;;;;;;19.20;32.90;;;;;;8364181;28;20042;-45
2023/01/31 19:36:29;;;;;;;;;;;19.30;33.00;;;;;;8363964;28;19925;-45
2023/01/31 19:40:29;;;;;;;;;;;19.30;33.00;;;;;;8364643;28;19931;-46
2023/01/31 19:44:30;;;;;;;;;;;19.30;33.00;;;;;;8364555;28;20325;-46
2023/01/31 19:48:31;;;;;;;;;;;19.30;33.00;;;;;;8364032;28;20393;-45
2023/01/31 19:52:32;;;;;;;;;;;19.30;33.00;;;;;;8364234;28;20378;-45
2023/01/31 19:56:32;;;;;;;;;;;19.30;33.00;;;;;;8363666;28;19985;-46
2023/01/31 20:00:33;;;;;;;;;;;19.30;32.90;;;;;;8344620;28;20439;-46
2023/01/31 20:04:33;;;;;;;;;;;19.40;33.00;;;;;;8362888;28;19959;-45
2023/01/31 20:08:34;;;;;;;;;;;19.40;33.00;;;;;;8361574;28;19917;-45
2023/01/31 20:12:34;;;;;;;;;;;19.40;33.00;;;;;;8362054;28;20004;-46
2023/01/31 20:16:35;;;;;;;;;;;19.40;32.90;;;;;;8362211;28;19932;-45
2023/01/31 20:20:35;;;;;;;;;;;19.50;33.00;;;;;;8362473;28;19917;-46
2023/01/31 20:24:36;;;;;;;;;;;19.40;32.90;;;;;;8361910;28;20370;-45
2023/01/31 20:28:38;;;;;;;;;;;19.50;33.00;;;;;;8362032;28;19963;-45
2023/01/31 20:32:38;;;;;;;;;;;19.50;32.90;;;;;;8361448;28;20317;-44
2023/01/31 20:36:39;;;;;;;;;;;19.50;32.90;;;;;;8361994;28;19929;-45
2023/01/31 20:40:39;;;;;;;;;;;19.50;33.00;;;;;;8361877;28;19924;-46
2023/01/31 20:44:40;;;;;;;;;;;19.50;32.90;;;;;;8360269;28;19919;-45
2023/01/31 20:48:41;;;;;;;;;;;19.50;33.00;;;;;;8361608;28;19944;-47
2023/01/31 20:52:41;;;;;;;;;;;19.50;32.90;;;;;;8361585;28;20484;-45
2023/01/31 20:56:42;;;;;;;;;;;19.50;32.90;;;;;;8299132;28;1770960;-45
2023/01/31 21:00:42;;;;;;;;;;;19.60;33.00;;;;;;8363448;28;19920;-46
2023/01/31 21:04:43;;;;;;;;;;;19.60;32.90;;;;;;8361764;28;20005;-45
2023/01/31 21:08:43;;;;;;;;;;;19.60;33.00;;;;;;8362358;28;19962;-45
2023/01/31 21:12:44;;;;;;;;;;;19.60;33.00;;;;;;8362665;28;19928;-45
2023/01/31 21:16:44;;;;;;;;;;;19.60;32.90;;;;;;8362617;28;19924;-46
2023/01/31 21:20:45;;;;;;;;;;;19.60;33.00;;;;;;8362226;28;19924;-45
2023/01/31 21:24:45;;;;;;;;;;;19.60;32.90;;;;;;8362843;28;19917;-44
2023/01/31 21:28:46;;;;;;;;;;;19.60;32.90;;;;;;8362292;28;19921;-46
2023/01/31 21:32:46;;;;;;;;;;;19.60;32.90;;;;;;8362013;28;19923;-45
2023/01/31 21:36:47;;;;;;;;;;;19.60;32.90;;;;;;8362551;28;19932;-44
2023/01/31 21:40:48;;;;;;;;;;;19.50;32.90;;;;;;8362482;28;19963;-45
2023/01/31 21:44:48;;;;;;;;;;;19.50;32.90;;;;;;8362008;28;19996;-44
2023/01/31 21:48:50;;;;;;;;;;;19.40;32.90;;;;;;8362165;28;19917;-45
2023/01/31 21:52:50;;;;;;;;;;;19.40;32.90;;;;;;8361894;28;19924;-45
2023/01/31 21:56:51;;;;;;;;;;;19.40;33.00;;;;;;8364118;28;20408;-43
2023/01/31 22:00:51;;;;;;;;;;;19.30;33.00;;;;;;8368414;28;19917;-46
2023/01/31 22:04:51;;;;;;;;;;;19.30;33.10;;;;;;8368046;28;19914;-44
2023/01/31 22:08:53;;;;;;;;;;;19.30;33.10;;;;;;8367674;28;20008;-44
2023/01/31 22:12:53;;;;;;;;;;;19.20;33.10;;;;;;8367864;28;20374;-44
2023/01/31 22:16:54;;;;;;;;;;;19.20;33.10;;;;;;8367264;28;19964;-44
2023/01/31 22:21:02;;;;;;;;;;;19.20;33.10;;;;;;8366982;28;19932;-45
2023/01/31 22:25:02;;;;;;;;;;;19.10;33.10;;;;;;8367666;28;19959;-45
2023/01/31 22:29:04;;;;;;;;;;;19.10;33.20;;;;;;8366895;28;19921;-45
2023/01/31 22:33:04;;;;;;;;;;;19.10;33.20;;;;;;8366423;28;19962;-47
2023/01/31 22:37:05;;;;;;;;;;;19.00;33.30;;;;;;8366627;28;20012;-45
2023/01/31 22:41:07;;;;;;;;;;;19.00;33.30;;;;;;8366535;28;19923;-44
2023/01/31 22:45:08;;;;;;;;;;;19.00;33.30;;;;;;8366142;28;19951;-45
2023/01/31 22:49:08;;;;;;;;;;;18.90;33.30;;;;;;8366187;28;19917;-45
2023/01/31 22:53:09;;;;;;;;;;;18.90;33.30;;;;;;8366341;28;19944;-45
2023/01/31 22:57:09;;;;;;;;;;;18.80;33.30;;;;;;8365893;28;20392;-45
2023/01/31 23:01:11;;;;;;;;;;;18.80;33.90;;;;;;8365453;28;19921;-45
2023/01/31 23:05:12;;;;;;;;;;;18.80;33.50;;;;;;8366120;28;19920;-45
2023/01/31 23:09:12;;;;;;;;;;;18.70;33.50;;;;;;8360371;28;20301;-44
2023/01/31 23:13:13;;;;;;;;;;;18.70;33.50;;;;;;8352126;28;19917;-45
2023/01/31 23:21:32;;;;;;;;;;;18.60;33.50;;;;;;8365331;28;20027;-45
2023/01/31 23:25:33;;;;;;;;;;;18.60;33.50;;;;;;8365735;28;19917;-45
2023/01/31 23:29:33;;;;;;;;;;;18.60;33.60;;;;;;8365280;28;20371;-45
2023/01/31 23:33:34;;;;;;;;;;;18.60;33.60;;;;;;8364579;28;19917;-45
2023/01/31 23:37:34;;;;;;;;;;;18.50;33.60;;;;;;8364709;28;19960;-45